createdAt,value
2018-04-17T15:27:06.398Z,6.40
2018-04-17T15:27:39.690Z,7.33
2018-04-17T15:28:00.610Z,5.40
2018-04-17T15:28:15.924Z,7.40
2018-04-17T15:28:29.232Z,6.62
2018-04-17T15:28:42.435Z,6.43
2018-04-17T15:28:55.609Z,6.30
2018-04-17T15:29:08.808Z,6.97
2018-04-17T15:29:22.049Z,7.05
2018-04-17T15:29:59.729Z,8.40
2018-04-17T15:30:13.823Z,8.30
2018-04-17T15:30:27.014Z,7.18
2018-04-17T15:30:40.209Z,6.85
2018-04-17T15:30:53.353Z,5.62
2018-04-17T15:31:07.215Z,4.43
2018-04-17T15:31:20.444Z,5.15
2018-04-17T20:13:43.738Z,2.42
2018-04-17T20:13:57.023Z,6.00
2018-04-17T20:14:10.661Z,6.87
2018-04-17T20:15:24.655Z,3.75
2018-04-17T20:16:17.849Z,2.78
2018-04-17T20:17:11.964Z,4.72
2018-04-17T20:18:05.348Z,4.68
2018-04-17T20:18:58.648Z,5.32
2018-04-17T20:19:51.852Z,2.90
2018-04-17T20:20:46.014Z,4.28
2018-04-17T20:21:39.682Z,5.28
2018-04-17T20:22:34.602Z,4.22
2018-04-17T20:23:29.270Z,2.90
2018-04-17T20:24:22.919Z,3.58
2018-04-17T20:25:18.674Z,3.35
2018-04-17T20:26:12.788Z,2.60
2018-04-17T20:27:10.126Z,3.42
2018-04-17T20:28:04.886Z,3.10
2018-04-17T20:28:58.639Z,2.33
2018-04-17T20:29:51.884Z,4.15
2018-04-17T20:30:45.195Z,3.25
2018-04-17T20:31:38.418Z,5.15
2018-04-17T20:32:31.601Z,2.97
2018-04-17T20:33:24.805Z,2.53
2018-04-17T20:34:18.082Z,4.30
2018-04-17T20:35:11.403Z,2.53
2018-04-17T20:37:51.505Z,3.85
2018-04-17T22:23:53.289Z,9.82
2018-04-17T22:24:46.621Z,10.10
2018-04-17T22:25:40.635Z,10.90
2018-04-17T22:26:33.984Z,12.52
2018-04-17T22:27:27.183Z,11.40
2018-04-17T22:28:21.455Z,8.95
2018-04-17T22:29:15.437Z,17.98
2018-04-17T22:30:08.714Z,9.20
2018-04-17T22:31:38.775Z,11.00
2018-04-17T22:32:32.068Z,9.23
2018-04-17T22:33:25.244Z,16.50
2018-04-17T22:34:19.265Z,11.82
2018-04-17T22:35:12.459Z,10.80
2018-04-17T22:36:06.420Z,8.40
2018-04-17T22:36:59.612Z,11.07
2018-04-17T22:37:52.802Z,13.45
2018-04-17T22:38:45.979Z,11.30
2018-04-17T22:39:39.961Z,12.35
2018-04-17T22:40:33.282Z,13.55
2018-04-17T22:41:27.225Z,19.05
2018-04-17T22:42:20.450Z,9.38
2018-04-17T22:43:13.728Z,11.60
2018-04-17T22:44:06.890Z,13.27
2018-04-17T22:45:00.846Z,11.15
2018-04-17T22:45:54.054Z,10.95
2018-04-17T22:46:47.316Z,13.07
2018-04-17T22:47:40.650Z,12.43
